sensor_id;sensor_type;location;lat;lon;timestamp;P1;durP1;ratioP1;P2;durP2;ratioP2
21657;SDS011;10990;48.174;9.782;2023-02-28T00:01:21;9.03;;;4.30;;
21657;SDS011;10990;48.174;9.782;2023-02-28T00:03:47;8.53;;;4.70;;
21657;SDS011;10990;48.174;9.782;2023-02-28T00:06:14;8.10;;;4.30;;
21657;SDS011;10990;48.174;9.782;2023-02-28T00:08:41;10.10;;;4.57;;
21657;SDS011;10990;48.174;9.782;2023-02-28T00:11:08;7.83;;;4.60;;
21657;SDS011;10990;48.174;9.782;2023-02-28T00:13:37;9.83;;;4.93;;
21657;SDS011;10990;48.174;9.782;2023-02-28T00:16:08;10.67;;;5.40;;
21657;SDS011;10990;48.174;9.782;2023-02-28T00:18:36;10.47;;;5.00;;
21657;SDS011;10990;48.174;9.782;2023-02-28T00:21:03;8.93;;;5.10;;
21657;SDS011;10990;48.174;9.782;2023-02-28T00:23:30;8.13;;;4.83;;
21657;SDS011;10990;48.174;9.782;2023-02-28T00:25:57;9.27;;;4.73;;
21657;SDS011;10990;48.174;9.782;2023-02-28T00:28:24;9.07;;;5.20;;
21657;SDS011;10990;48.174;9.782;2023-02-28T00:30:51;9.10;;;4.77;;
21657;SDS011;10990;48.174;9.782;2023-02-28T00:33:19;8.60;;;4.90;;
21657;SDS011;10990;48.174;9.782;2023-02-28T00:35:46;8.80;;;5.27;;
21657;SDS011;10990;48.174;9.782;2023-02-28T00:38:13;11.43;;;4.77;;
21657;SDS011;10990;48.174;9.782;2023-02-28T00:40:41;9.93;;;4.70;;
21657;SDS011;10990;48.174;9.782;2023-02-28T00:43:09;6.07;;;4.23;;
21657;SDS011;10990;48.174;9.782;2023-02-28T00:45:36;7.90;;;4.70;;
21657;SDS011;10990;48.174;9.782;2023-02-28T00:48:03;9.87;;;4.53;;
21657;SDS011;10990;48.174;9.782;2023-02-28T00:50:32;7.47;;;4.40;;
21657;SDS011;10990;48.174;9.782;2023-02-28T00:52:59;8.77;;;4.00;;
21657;SDS011;10990;48.174;9.782;2023-02-28T00:55:26;7.07;;;4.30;;
21657;SDS011;10990;48.174;9.782;2023-02-28T00:57:52;8.97;;;4.80;;
21657;SDS011;10990;48.174;9.782;2023-02-28T01:00:19;6.80;;;4.00;;
21657;SDS011;10990;48.174;9.782;2023-02-28T01:02:49;7.07;;;3.90;;
21657;SDS011;10990;48.174;9.782;2023-02-28T01:05:15;7.83;;;3.90;;
21657;SDS011;10990;48.174;9.782;2023-02-28T01:07:45;10.57;;;4.97;;
21657;SDS011;10990;48.174;9.782;2023-02-28T01:10:12;7.30;;;3.80;;
21657;SDS011;10990;48.174;9.782;2023-02-28T01:12:39;6.43;;;3.87;;
21657;SDS011;10990;48.174;9.782;2023-02-28T01:15:09;7.90;;;4.13;;
21657;SDS011;10990;48.174;9.782;2023-02-28T01:17:36;6.83;;;3.97;;
21657;SDS011;10990;48.174;9.782;2023-02-28T01:20:04;9.20;;;3.83;;
21657;SDS011;10990;48.174;9.782;2023-02-28T01:22:32;6.67;;;3.60;;
21657;SDS011;10990;48.174;9.782;2023-02-28T01:25:02;5.40;;;3.67;;
21657;SDS011;10990;48.174;9.782;2023-02-28T01:27:30;7.67;;;4.00;;
21657;SDS011;10990;48.174;9.782;2023-02-28T01:29:57;7.30;;;3.93;;
21657;SDS011;10990;48.174;9.782;2023-02-28T01:32:24;6.33;;;3.60;;
21657;SDS011;10990;48.174;9.782;2023-02-28T01:34:51;6.93;;;3.90;;
21657;SDS011;10990;48.174;9.782;2023-02-28T01:37:17;9.40;;;3.80;;
21657;SDS011;10990;48.174;9.782;2023-02-28T01:39:44;10.07;;;3.67;;
21657;SDS011;10990;48.174;9.782;2023-02-28T01:42:12;6.67;;;3.80;;
21657;SDS011;10990;48.174;9.782;2023-02-28T01:44:57;6.70;;;3.63;;
21657;SDS011;10990;48.174;9.782;2023-02-28T01:47:27;8.33;;;3.80;;
21657;SDS011;10990;48.174;9.782;2023-02-28T01:49:58;5.90;;;3.53;;
21657;SDS011;10990;48.174;9.782;2023-02-28T01:52:26;10.30;;;4.33;;
21657;SDS011;10990;48.174;9.782;2023-02-28T01:54:54;8.43;;;3.60;;
21657;SDS011;10990;48.174;9.782;2023-02-28T01:57:25;7.90;;;3.77;;
21657;SDS011;10990;48.174;9.782;2023-02-28T01:59:57;8.37;;;3.57;;
21657;SDS011;10990;48.174;9.782;2023-02-28T02:02:38;5.87;;;3.50;;
21657;SDS011;10990;48.174;9.782;2023-02-28T02:05:06;6.83;;;3.77;;
21657;SDS011;10990;48.174;9.782;2023-02-28T02:07:37;8.37;;;4.03;;
21657;SDS011;10990;48.174;9.782;2023-02-28T02:10:10;8.87;;;4.27;;
21657;SDS011;10990;48.174;9.782;2023-02-28T02:12:46;7.17;;;3.80;;
21657;SDS011;10990;48.174;9.782;2023-02-28T02:15:35;7.10;;;3.77;;
21657;SDS011;10990;48.174;9.782;2023-02-28T02:18:10;8.80;;;4.20;;
21657;SDS011;10990;48.174;9.782;2023-02-28T02:24:03;7.50;;;3.83;;
21657;SDS011;10990;48.174;9.782;2023-02-28T02:26:58;7.83;;;3.50;;
21657;SDS011;10990;48.174;9.782;2023-02-28T02:29:45;8.13;;;3.73;;
21657;SDS011;10990;48.174;9.782;2023-02-28T02:32:30;10.23;;;3.87;;
21657;SDS011;10990;48.174;9.782;2023-02-28T02:35:15;8.30;;;3.70;;
21657;SDS011;10990;48.174;9.782;2023-02-28T02:37:51;7.63;;;3.70;;
21657;SDS011;10990;48.174;9.782;2023-02-28T02:40:25;5.80;;;3.90;;
21657;SDS011;10990;48.174;9.782;2023-02-28T02:42:58;6.70;;;3.93;;
21657;SDS011;10990;48.174;9.782;2023-02-28T02:45:31;6.67;;;3.63;;
21657;SDS011;10990;48.174;9.782;2023-02-28T02:48:01;7.73;;;4.07;;
21657;SDS011;10990;48.174;9.782;2023-02-28T02:50:33;9.90;;;3.93;;
21657;SDS011;10990;48.174;9.782;2023-02-28T02:53:04;8.20;;;4.20;;
21657;SDS011;10990;48.174;9.782;2023-02-28T02:55:34;7.27;;;3.93;;
21657;SDS011;10990;48.174;9.782;2023-02-28T02:58:07;7.53;;;3.93;;
21657;SDS011;10990;48.174;9.782;2023-02-28T03:00:37;8.67;;;4.50;;
21657;SDS011;10990;48.174;9.782;2023-02-28T03:03:09;10.87;;;4.17;;
21657;SDS011;10990;48.174;9.782;2023-02-28T03:05:41;6.77;;;4.00;;
21657;SDS011;10990;48.174;9.782;2023-02-28T03:08:11;7.90;;;4.37;;
21657;SDS011;10990;48.174;9.782;2023-02-28T03:10:38;6.50;;;4.20;;
21657;SDS011;10990;48.174;9.782;2023-02-28T03:16:13;6.40;;;4.10;;
21657;SDS011;10990;48.174;9.782;2023-02-28T03:18:54;7.07;;;3.67;;
21657;SDS011;10990;48.174;9.782;2023-02-28T03:21:30;6.90;;;3.80;;
21657;SDS011;10990;48.174;9.782;2023-02-28T03:24:03;9.33;;;4.10;;
21657;SDS011;10990;48.174;9.782;2023-02-28T03:26:36;6.90;;;4.20;;
21657;SDS011;10990;48.174;9.782;2023-02-28T03:29:07;6.77;;;3.70;;
21657;SDS011;10990;48.174;9.782;2023-02-28T03:31:43;7.93;;;4.10;;
21657;SDS011;10990;48.174;9.782;2023-02-28T03:34:16;8.43;;;4.50;;
21657;SDS011;10990;48.174;9.782;2023-02-28T03:36:50;10.23;;;4.40;;
21657;SDS011;10990;48.174;9.782;2023-02-28T03:39:20;7.43;;;4.20;;
21657;SDS011;10990;48.174;9.782;2023-02-28T03:41:51;6.57;;;4.23;;
21657;SDS011;10990;48.174;9.782;2023-02-28T03:44:24;8.13;;;4.07;;
21657;SDS011;10990;48.174;9.782;2023-02-28T03:46:56;9.93;;;4.17;;
21657;SDS011;10990;48.174;9.782;2023-02-28T03:49:27;8.43;;;4.30;;
21657;SDS011;10990;48.174;9.782;2023-02-28T03:52:00;7.90;;;3.90;;
21657;SDS011;10990;48.174;9.782;2023-02-28T03:54:30;8.77;;;4.90;;
21657;SDS011;10990;48.174;9.782;2023-02-28T03:56:59;9.93;;;4.40;;
21657;SDS011;10990;48.174;9.782;2023-02-28T03:59:34;9.03;;;4.47;;
21657;SDS011;10990;48.174;9.782;2023-02-28T04:02:04;7.07;;;4.40;;
21657;SDS011;10990;48.174;9.782;2023-02-28T04:04:31;11.00;;;4.57;;
21657;SDS011;10990;48.174;9.782;2023-02-28T04:07:03;8.47;;;4.40;;
21657;SDS011;10990;48.174;9.782;2023-02-28T04:09:32;7.97;;;4.37;;
21657;SDS011;10990;48.174;9.782;2023-02-28T04:11:58;7.80;;;4.43;;
21657;SDS011;10990;48.174;9.782;2023-02-28T04:14:25;8.87;;;4.50;;
21657;SDS011;10990;48.174;9.782;2023-02-28T04:16:53;8.77;;;4.60;;
21657;SDS011;10990;48.174;9.782;2023-02-28T04:19:19;8.97;;;4.70;;
21657;SDS011;10990;48.174;9.782;2023-02-28T04:21:47;9.97;;;4.90;;
21657;SDS011;10990;48.174;9.782;2023-02-28T04:24:17;9.37;;;4.87;;
21657;SDS011;10990;48.174;9.782;2023-02-28T04:26:47;8.73;;;4.60;;
21657;SDS011;10990;48.174;9.782;2023-02-28T04:29:18;7.43;;;4.43;;
21657;SDS011;10990;48.174;9.782;2023-02-28T04:31:46;9.67;;;4.77;;
21657;SDS011;10990;48.174;9.782;2023-02-28T04:34:12;10.67;;;5.13;;
21657;SDS011;10990;48.174;9.782;2023-02-28T04:36:39;9.00;;;4.73;;
21657;SDS011;10990;48.174;9.782;2023-02-28T04:39:06;9.50;;;5.03;;
21657;SDS011;10990;48.174;9.782;2023-02-28T04:41:36;7.03;;;4.23;;
21657;SDS011;10990;48.174;9.782;2023-02-28T04:44:03;10.07;;;5.13;;
21657;SDS011;10990;48.174;9.782;2023-02-28T04:46:30;9.80;;;4.70;;
21657;SDS011;10990;48.174;9.782;2023-02-28T04:48:56;7.97;;;4.90;;
21657;SDS011;10990;48.174;9.782;2023-02-28T04:51:23;8.70;;;4.97;;
21657;SDS011;10990;48.174;9.782;2023-02-28T04:53:50;7.40;;;4.73;;
21657;SDS011;10990;48.174;9.782;2023-02-28T04:56:17;11.70;;;5.47;;
21657;SDS011;10990;48.174;9.782;2023-02-28T04:58:45;9.27;;;5.23;;
21657;SDS011;10990;48.174;9.782;2023-02-28T05:01:16;11.83;;;5.50;;
21657;SDS011;10990;48.174;9.782;2023-02-28T05:03:48;11.87;;;5.57;;
21657;SDS011;10990;48.174;9.782;2023-02-28T05:06:15;8.27;;;5.03;;
21657;SDS011;10990;48.174;9.782;2023-02-28T05:08:42;10.20;;;5.47;;
21657;SDS011;10990;48.174;9.782;2023-02-28T05:11:13;9.00;;;5.30;;
21657;SDS011;10990;48.174;9.782;2023-02-28T05:13:43;11.63;;;5.77;;
21657;SDS011;10990;48.174;9.782;2023-02-28T05:16:12;11.03;;;5.73;;
21657;SDS011;10990;48.174;9.782;2023-02-28T05:18:38;11.80;;;5.67;;
21657;SDS011;10990;48.174;9.782;2023-02-28T05:21:05;11.83;;;6.50;;
21657;SDS011;10990;48.174;9.782;2023-02-28T05:23:32;10.00;;;5.57;;
21657;SDS011;10990;48.174;9.782;2023-02-28T05:25:59;9.97;;;6.23;;
21657;SDS011;10990;48.174;9.782;2023-02-28T05:28:25;10.67;;;6.20;;
21657;SDS011;10990;48.174;9.782;2023-02-28T05:30:52;10.67;;;5.77;;
21657;SDS011;10990;48.174;9.782;2023-02-28T05:33:20;11.83;;;6.10;;
21657;SDS011;10990;48.174;9.782;2023-02-28T05:35:47;12.33;;;6.30;;
21657;SDS011;10990;48.174;9.782;2023-02-28T05:38:13;13.37;;;6.10;;
21657;SDS011;10990;48.174;9.782;2023-02-28T05:40:40;13.10;;;6.83;;
21657;SDS011;10990;48.174;9.782;2023-02-28T05:43:09;12.07;;;6.40;;
21657;SDS011;10990;48.174;9.782;2023-02-28T05:45:37;10.77;;;6.20;;
21657;SDS011;10990;48.174;9.782;2023-02-28T05:48:04;12.50;;;6.20;;
21657;SDS011;10990;48.174;9.782;2023-02-28T05:50:32;14.67;;;7.27;;
21657;SDS011;10990;48.174;9.782;2023-02-28T05:52:59;11.80;;;6.77;;
21657;SDS011;10990;48.174;9.782;2023-02-28T05:55:26;16.27;;;8.03;;
21657;SDS011;10990;48.174;9.782;2023-02-28T05:57:52;14.47;;;7.20;;
21657;SDS011;10990;48.174;9.782;2023-02-28T06:00:19;13.23;;;6.83;;
21657;SDS011;10990;48.174;9.782;2023-02-28T06:02:46;12.23;;;6.70;;
21657;SDS011;10990;48.174;9.782;2023-02-28T06:05:14;12.37;;;7.03;;
21657;SDS011;10990;48.174;9.782;2023-02-28T06:07:43;13.67;;;6.60;;
21657;SDS011;10990;48.174;9.782;2023-02-28T06:10:10;16.10;;;7.53;;
21657;SDS011;10990;48.174;9.782;2023-02-28T06:12:38;14.43;;;7.40;;
21657;SDS011;10990;48.174;9.782;2023-02-28T06:15:07;13.47;;;7.43;;
21657;SDS011;10990;48.174;9.782;2023-02-28T06:17:37;13.57;;;7.47;;
21657;SDS011;10990;48.174;9.782;2023-02-28T06:20:05;12.63;;;7.30;;
21657;SDS011;10990;48.174;9.782;2023-02-28T06:22:32;14.27;;;7.47;;
21657;SDS011;10990;48.174;9.782;2023-02-28T06:25:00;15.73;;;7.73;;
21657;SDS011;10990;48.174;9.782;2023-02-28T06:27:27;13.17;;;6.83;;
21657;SDS011;10990;48.174;9.782;2023-02-28T06:29:54;17.13;;;7.47;;
21657;SDS011;10990;48.174;9.782;2023-02-28T06:32:21;18.47;;;7.97;;
21657;SDS011;10990;48.174;9.782;2023-02-28T06:34:48;14.73;;;7.77;;
21657;SDS011;10990;48.174;9.782;2023-02-28T06:37:15;16.27;;;9.40;;
21657;SDS011;10990;48.174;9.782;2023-02-28T06:39:42;12.80;;;7.53;;
21657;SDS011;10990;48.174;9.782;2023-02-28T06:42:11;15.07;;;7.60;;
21657;SDS011;10990;48.174;9.782;2023-02-28T06:44:38;15.67;;;7.70;;
21657;SDS011;10990;48.174;9.782;2023-02-28T06:47:06;15.60;;;8.47;;
21657;SDS011;10990;48.174;9.782;2023-02-28T06:49:34;16.17;;;8.70;;
21657;SDS011;10990;48.174;9.782;2023-02-28T06:52:01;15.93;;;8.47;;
21657;SDS011;10990;48.174;9.782;2023-02-28T06:54:28;17.07;;;8.13;;
21657;SDS011;10990;48.174;9.782;2023-02-28T06:56:55;15.50;;;8.77;;
21657;SDS011;10990;48.174;9.782;2023-02-28T06:59:24;23.83;;;10.97;;
21657;SDS011;10990;48.174;9.782;2023-02-28T07:01:51;17.47;;;9.80;;
21657;SDS011;10990;48.174;9.782;2023-02-28T07:04:18;19.07;;;10.40;;
21657;SDS011;10990;48.174;9.782;2023-02-28T07:06:44;16.87;;;8.63;;
21657;SDS011;10990;48.174;9.782;2023-02-28T07:09:11;16.00;;;8.53;;
21657;SDS011;10990;48.174;9.782;2023-02-28T07:11:39;19.40;;;10.00;;
21657;SDS011;10990;48.174;9.782;2023-02-28T07:14:08;17.70;;;9.40;;
21657;SDS011;10990;48.174;9.782;2023-02-28T07:16:36;18.60;;;8.83;;
21657;SDS011;10990;48.174;9.782;2023-02-28T07:19:03;18.17;;;9.30;;
21657;SDS011;10990;48.174;9.782;2023-02-28T07:21:29;22.83;;;11.10;;
21657;SDS011;10990;48.174;9.782;2023-02-28T07:23:57;17.30;;;9.33;;
21657;SDS011;10990;48.174;9.782;2023-02-28T07:26:24;22.47;;;10.73;;
21657;SDS011;10990;48.174;9.782;2023-02-28T07:28:51;53.07;;;22.17;;
21657;SDS011;10990;48.174;9.782;2023-02-28T07:31:18;31.83;;;15.77;;
21657;SDS011;10990;48.174;9.782;2023-02-28T07:33:46;24.70;;;11.97;;
21657;SDS011;10990;48.174;9.782;2023-02-28T07:36:14;21.80;;;9.30;;
21657;SDS011;10990;48.174;9.782;2023-02-28T07:38:44;23.10;;;10.07;;
21657;SDS011;10990;48.174;9.782;2023-02-28T07:41:13;21.87;;;10.57;;
21657;SDS011;10990;48.174;9.782;2023-02-28T07:43:40;19.83;;;10.53;;
21657;SDS011;10990;48.174;9.782;2023-02-28T07:46:08;21.30;;;10.57;;
21657;SDS011;10990;48.174;9.782;2023-02-28T07:48:36;21.07;;;9.87;;
21657;SDS011;10990;48.174;9.782;2023-02-28T07:51:04;18.27;;;10.20;;
21657;SDS011;10990;48.174;9.782;2023-02-28T07:53:31;20.57;;;10.13;;
21657;SDS011;10990;48.174;9.782;2023-02-28T07:55:58;20.60;;;10.40;;
21657;SDS011;10990;48.174;9.782;2023-02-28T07:58:27;18.37;;;10.53;;
21657;SDS011;10990;48.174;9.782;2023-02-28T08:00:55;19.60;;;10.30;;
21657;SDS011;10990;48.174;9.782;2023-02-28T08:03:22;20.80;;;9.80;;
21657;SDS011;10990;48.174;9.782;2023-02-28T08:05:50;21.27;;;10.70;;
21657;SDS011;10990;48.174;9.782;2023-02-28T08:08:19;18.93;;;10.77;;
21657;SDS011;10990;48.174;9.782;2023-02-28T08:10:46;18.97;;;10.20;;
21657;SDS011;10990;48.174;9.782;2023-02-28T08:13:13;21.47;;;10.13;;
21657;SDS011;10990;48.174;9.782;2023-02-28T08:15:40;18.13;;;10.30;;
21657;SDS011;10990;48.174;9.782;2023-02-28T08:18:07;21.00;;;10.40;;
21657;SDS011;10990;48.174;9.782;2023-02-28T08:20:34;22.23;;;10.57;;
21657;SDS011;10990;48.174;9.782;2023-02-28T08:23:01;21.23;;;10.83;;
21657;SDS011;10990;48.174;9.782;2023-02-28T08:25:29;19.83;;;10.60;;
21657;SDS011;10990;48.174;9.782;2023-02-28T08:27:56;23.53;;;11.97;;
21657;SDS011;10990;48.174;9.782;2023-02-28T08:30:22;22.23;;;10.60;;
21657;SDS011;10990;48.174;9.782;2023-02-28T08:32:49;22.67;;;11.47;;
21657;SDS011;10990;48.174;9.782;2023-02-28T08:35:16;23.03;;;11.77;;
21657;SDS011;10990;48.174;9.782;2023-02-28T08:37:42;22.00;;;10.97;;
21657;SDS011;10990;48.174;9.782;2023-02-28T08:40:10;20.80;;;11.40;;
21657;SDS011;10990;48.174;9.782;2023-02-28T08:42:44;22.27;;;11.50;;
21657;SDS011;10990;48.174;9.782;2023-02-28T08:45:11;22.97;;;11.97;;
21657;SDS011;10990;48.174;9.782;2023-02-28T08:47:38;32.73;;;13.87;;
21657;SDS011;10990;48.174;9.782;2023-02-28T08:50:05;43.63;;;15.83;;
21657;SDS011;10990;48.174;9.782;2023-02-28T08:52:33;25.17;;;12.03;;
21657;SDS011;10990;48.174;9.782;2023-02-28T08:54:59;43.40;;;16.70;;
21657;SDS011;10990;48.174;9.782;2023-02-28T08:57:26;23.23;;;11.53;;
21657;SDS011;10990;48.174;9.782;2023-02-28T08:59:54;28.87;;;13.00;;
21657;SDS011;10990;48.174;9.782;2023-02-28T09:02:22;26.73;;;13.63;;
21657;SDS011;10990;48.174;9.782;2023-02-28T09:04:49;23.37;;;12.17;;
21657;SDS011;10990;48.174;9.782;2023-02-28T09:07:15;29.23;;;13.37;;
21657;SDS011;10990;48.174;9.782;2023-02-28T09:09:42;22.33;;;12.17;;
21657;SDS011;10990;48.174;9.782;2023-02-28T09:12:18;22.83;;;11.77;;
21657;SDS011;10990;48.174;9.782;2023-02-28T09:14:45;22.97;;;12.17;;
21657;SDS011;10990;48.174;9.782;2023-02-28T09:17:14;21.97;;;11.27;;
21657;SDS011;10990;48.174;9.782;2023-02-28T09:19:41;21.63;;;12.23;;
21657;SDS011;10990;48.174;9.782;2023-02-28T09:22:08;22.20;;;12.00;;
21657;SDS011;10990;48.174;9.782;2023-02-28T09:24:36;19.93;;;11.70;;
21657;SDS011;10990;48.174;9.782;2023-02-28T09:27:02;22.30;;;12.17;;
21657;SDS011;10990;48.174;9.782;2023-02-28T09:29:30;22.03;;;12.10;;
21657;SDS011;10990;48.174;9.782;2023-02-28T09:31:57;25.00;;;12.30;;
21657;SDS011;10990;48.174;9.782;2023-02-28T09:34:25;24.83;;;12.00;;
21657;SDS011;10990;48.174;9.782;2023-02-28T09:36:52;24.13;;;12.50;;
21657;SDS011;10990;48.174;9.782;2023-02-28T09:39:20;23.50;;;11.67;;
21657;SDS011;10990;48.174;9.782;2023-02-28T09:41:47;22.10;;;11.93;;
21657;SDS011;10990;48.174;9.782;2023-02-28T09:44:18;22.40;;;11.93;;
21657;SDS011;10990;48.174;9.782;2023-02-28T09:46:49;24.93;;;12.33;;
21657;SDS011;10990;48.174;9.782;2023-02-28T09:49:22;23.80;;;13.00;;
21657;SDS011;10990;48.174;9.782;2023-02-28T09:51:56;28.40;;;13.53;;
21657;SDS011;10990;48.174;9.782;2023-02-28T09:54:28;22.30;;;12.67;;
21657;SDS011;10990;48.174;9.782;2023-02-28T09:56:56;21.83;;;12.20;;
21657;SDS011;10990;48.174;9.782;2023-02-28T09:59:31;22.73;;;12.23;;
21657;SDS011;10990;48.174;9.782;2023-02-28T10:02:30;24.47;;;12.37;;
21657;SDS011;10990;48.174;9.782;2023-02-28T10:05:09;22.73;;;12.00;;
21657;SDS011;10990;48.174;9.782;2023-02-28T10:07:48;23.57;;;12.57;;
21657;SDS011;10990;48.174;9.782;2023-02-28T10:10:27;20.50;;;11.87;;
21657;SDS011;10990;48.174;9.782;2023-02-28T10:12:59;21.50;;;11.97;;
21657;SDS011;10990;48.174;9.782;2023-02-28T10:15:29;21.57;;;11.93;;
21657;SDS011;10990;48.174;9.782;2023-02-28T10:17:58;22.13;;;11.33;;
21657;SDS011;10990;48.174;9.782;2023-02-28T10:20:30;25.40;;;12.17;;
21657;SDS011;10990;48.174;9.782;2023-02-28T10:23:01;22.10;;;11.70;;
21657;SDS011;10990;48.174;9.782;2023-02-28T10:25:33;26.37;;;12.33;;
21657;SDS011;10990;48.174;9.782;2023-02-28T10:28:07;21.93;;;12.57;;
21657;SDS011;10990;48.174;9.782;2023-02-28T10:30:36;22.47;;;12.27;;
21657;SDS011;10990;48.174;9.782;2023-02-28T10:33:08;23.47;;;12.30;;
21657;SDS011;10990;48.174;9.782;2023-02-28T10:35:45;26.23;;;13.10;;
21657;SDS011;10990;48.174;9.782;2023-02-28T10:38:14;24.73;;;12.47;;
21657;SDS011;10990;48.174;9.782;2023-02-28T10:40:44;24.50;;;12.30;;
21657;SDS011;10990;48.174;9.782;2023-02-28T10:43:18;22.33;;;12.20;;
21657;SDS011;10990;48.174;9.782;2023-02-28T10:45:52;24.43;;;11.83;;
21657;SDS011;10990;48.174;9.782;2023-02-28T10:48:34;22.73;;;11.93;;
21657;SDS011;10990;48.174;9.782;2023-02-28T10:51:05;23.03;;;12.17;;
21657;SDS011;10990;48.174;9.782;2023-02-28T10:53:35;23.17;;;12.80;;
21657;SDS011;10990;48.174;9.782;2023-02-28T10:56:12;22.47;;;11.87;;
21657;SDS011;10990;48.174;9.782;2023-02-28T10:58:46;20.37;;;11.83;;
21657;SDS011;10990;48.174;9.782;2023-02-28T11:01:15;20.60;;;10.60;;
21657;SDS011;10990;48.174;9.782;2023-02-28T11:03:43;21.13;;;12.03;;
21657;SDS011;10990;48.174;9.782;2023-02-28T11:06:15;19.43;;;11.40;;
21657;SDS011;10990;48.174;9.782;2023-02-28T11:08:48;21.90;;;12.33;;
21657;SDS011;10990;48.174;9.782;2023-02-28T11:11:18;23.20;;;11.50;;
21657;SDS011;10990;48.174;9.782;2023-02-28T11:13:46;23.87;;;12.50;;
21657;SDS011;10990;48.174;9.782;2023-02-28T11:16:16;25.83;;;11.97;;
21657;SDS011;10990;48.174;9.782;2023-02-28T11:18:46;20.17;;;10.70;;
21657;SDS011;10990;48.174;9.782;2023-02-28T11:21:18;22.27;;;10.93;;
21657;SDS011;10990;48.174;9.782;2023-02-28T11:23:47;20.87;;;11.80;;
21657;SDS011;10990;48.174;9.782;2023-02-28T11:26:18;22.33;;;11.33;;
21657;SDS011;10990;48.174;9.782;2023-02-28T11:29:03;24.83;;;12.80;;
21657;SDS011;10990;48.174;9.782;2023-02-28T11:31:37;21.23;;;11.47;;
21657;SDS011;10990;48.174;9.782;2023-02-28T11:34:10;30.70;;;13.80;;
21657;SDS011;10990;48.174;9.782;2023-02-28T11:36:51;23.27;;;12.63;;
21657;SDS011;10990;48.174;9.782;2023-02-28T11:39:20;22.33;;;11.83;;
21657;SDS011;10990;48.174;9.782;2023-02-28T11:41:52;25.90;;;12.03;;
21657;SDS011;10990;48.174;9.782;2023-02-28T11:44:32;22.77;;;12.10;;
21657;SDS011;10990;48.174;9.782;2023-02-28T11:47:10;23.47;;;12.20;;
21657;SDS011;10990;48.174;9.782;2023-02-28T11:49:45;24.47;;;11.87;;
21657;SDS011;10990;48.174;9.782;2023-02-28T11:52:19;21.57;;;12.63;;
21657;SDS011;10990;48.174;9.782;2023-02-28T11:54:57;22.30;;;12.67;;
21657;SDS011;10990;48.174;9.782;2023-02-28T11:57:42;48.53;;;18.60;;
21657;SDS011;10990;48.174;9.782;2023-02-28T12:00:26;21.67;;;12.10;;
21657;SDS011;10990;48.174;9.782;2023-02-28T12:03:04;24.07;;;13.00;;
21657;SDS011;10990;48.174;9.782;2023-02-28T12:05:43;22.77;;;13.10;;
21657;SDS011;10990;48.174;9.782;2023-02-28T12:08:20;22.47;;;12.97;;
21657;SDS011;10990;48.174;9.782;2023-02-28T12:10:56;23.70;;;12.30;;
21657;SDS011;10990;48.174;9.782;2023-02-28T12:13:34;22.27;;;12.57;;
21657;SDS011;10990;48.174;9.782;2023-02-28T12:16:17;22.43;;;11.77;;
21657;SDS011;10990;48.174;9.782;2023-02-28T12:19:06;22.07;;;11.33;;
21657;SDS011;10990;48.174;9.782;2023-02-28T12:21:49;22.17;;;12.70;;
21657;SDS011;10990;48.174;9.782;2023-02-28T12:24:36;23.57;;;11.90;;
21657;SDS011;10990;48.174;9.782;2023-02-28T12:27:13;19.67;;;12.20;;
21657;SDS011;10990;48.174;9.782;2023-02-28T12:29:44;20.70;;;11.80;;
21657;SDS011;10990;48.174;9.782;2023-02-28T12:32:16;20.10;;;11.27;;
21657;SDS011;10990;48.174;9.782;2023-02-28T12:34:49;20.63;;;12.00;;
21657;SDS011;10990;48.174;9.782;2023-02-28T12:37:20;21.47;;;11.93;;
21657;SDS011;10990;48.174;9.782;2023-02-28T12:39:54;19.43;;;11.50;;
21657;SDS011;10990;48.174;9.782;2023-02-28T12:42:26;18.53;;;11.33;;
21657;SDS011;10990;48.174;9.782;2023-02-28T12:44:56;19.97;;;11.47;;
21657;SDS011;10990;48.174;9.782;2023-02-28T12:47:25;19.40;;;11.37;;
21657;SDS011;10990;48.174;9.782;2023-02-28T12:49:53;21.67;;;12.00;;
21657;SDS011;10990;48.174;9.782;2023-02-28T12:52:25;22.90;;;12.07;;
21657;SDS011;10990;48.174;9.782;2023-02-28T12:55:05;21.47;;;11.90;;
21657;SDS011;10990;48.174;9.782;2023-02-28T12:57:39;21.53;;;11.80;;
21657;SDS011;10990;48.174;9.782;2023-02-28T13:00:13;20.90;;;11.60;;
21657;SDS011;10990;48.174;9.782;2023-02-28T13:02:54;26.17;;;12.40;;
21657;SDS011;10990;48.174;9.782;2023-02-28T13:08:48;19.30;;;11.77;;
21657;SDS011;10990;48.174;9.782;2023-02-28T13:11:31;22.20;;;12.00;;
21657;SDS011;10990;48.174;9.782;2023-02-28T13:14:00;21.43;;;11.30;;
21657;SDS011;10990;48.174;9.782;2023-02-28T13:16:32;20.97;;;11.90;;
21657;SDS011;10990;48.174;9.782;2023-02-28T13:19:19;19.23;;;11.40;;
21657;SDS011;10990;48.174;9.782;2023-02-28T13:21:48;22.63;;;12.40;;
21657;SDS011;10990;48.174;9.782;2023-02-28T13:27:22;19.57;;;11.23;;
21657;SDS011;10990;48.174;9.782;2023-02-28T13:29:57;24.03;;;12.03;;
21657;SDS011;10990;48.174;9.782;2023-02-28T13:32:32;21.00;;;12.03;;
21657;SDS011;10990;48.174;9.782;2023-02-28T13:38:24;18.10;;;11.37;;
21657;SDS011;10990;48.174;9.782;2023-02-28T13:44:07;23.03;;;11.60;;
21657;SDS011;10990;48.174;9.782;2023-02-28T13:46:36;18.97;;;10.50;;
21657;SDS011;10990;48.174;9.782;2023-02-28T13:49:25;21.43;;;11.93;;
21657;SDS011;10990;48.174;9.782;2023-02-28T13:51:54;20.23;;;11.30;;
21657;SDS011;10990;48.174;9.782;2023-02-28T13:54:40;20.63;;;11.50;;
21657;SDS011;10990;48.174;9.782;2023-02-28T13:57:20;19.90;;;11.00;;
21657;SDS011;10990;48.174;9.782;2023-02-28T14:00:01;19.37;;;11.17;;
21657;SDS011;10990;48.174;9.782;2023-02-28T14:02:54;21.73;;;11.47;;
21657;SDS011;10990;48.174;9.782;2023-02-28T14:05:34;20.47;;;11.07;;
21657;SDS011;10990;48.174;9.782;2023-02-28T14:08:04;21.17;;;11.77;;
21657;SDS011;10990;48.174;9.782;2023-02-28T14:10:34;19.97;;;11.07;;
21657;SDS011;10990;48.174;9.782;2023-02-28T14:13:13;22.00;;;12.50;;
21657;SDS011;10990;48.174;9.782;2023-02-28T14:16:06;20.60;;;12.13;;
21657;SDS011;10990;48.174;9.782;2023-02-28T14:18:34;18.43;;;10.80;;
21657;SDS011;10990;48.174;9.782;2023-02-28T14:21:09;18.30;;;10.93;;
21657;SDS011;10990;48.174;9.782;2023-02-28T14:23:50;18.70;;;11.10;;
21657;SDS011;10990;48.174;9.782;2023-02-28T14:26:54;18.97;;;10.73;;
21657;SDS011;10990;48.174;9.782;2023-02-28T14:29:40;20.90;;;11.60;;
21657;SDS011;10990;48.174;9.782;2023-02-28T14:32:26;20.37;;;11.30;;
21657;SDS011;10990;48.174;9.782;2023-02-28T14:34:59;17.17;;;10.80;;
21657;SDS011;10990;48.174;9.782;2023-02-28T14:37:37;18.67;;;10.67;;
21657;SDS011;10990;48.174;9.782;2023-02-28T14:40:11;18.37;;;10.83;;
21657;SDS011;10990;48.174;9.782;2023-02-28T14:42:45;21.17;;;10.73;;
21657;SDS011;10990;48.174;9.782;2023-02-28T14:45:17;22.17;;;11.30;;
21657;SDS011;10990;48.174;9.782;2023-02-28T14:47:46;20.13;;;10.57;;
21657;SDS011;10990;48.174;9.782;2023-02-28T14:50:18;21.60;;;11.70;;
21657;SDS011;10990;48.174;9.782;2023-02-28T14:52:46;19.70;;;11.63;;
21657;SDS011;10990;48.174;9.782;2023-02-28T14:55:17;21.23;;;11.77;;
21657;SDS011;10990;48.174;9.782;2023-02-28T14:57:50;20.37;;;12.20;;
21657;SDS011;10990;48.174;9.782;2023-02-28T15:00:21;20.70;;;12.13;;
21657;SDS011;10990;48.174;9.782;2023-02-28T15:02:51;24.43;;;12.27;;
21657;SDS011;10990;48.174;9.782;2023-02-28T15:05:22;19.77;;;12.10;;
21657;SDS011;10990;48.174;9.782;2023-02-28T15:08:04;23.30;;;11.90;;
21657;SDS011;10990;48.174;9.782;2023-02-28T15:10:33;21.63;;;11.93;;
21657;SDS011;10990;48.174;9.782;2023-02-28T15:13:01;22.47;;;11.93;;